Baileyton, Tennessee
Current Conditions -  °F | °C
As of 10:53 PM on Friday 31 Oct 2014 (Local Time) from KTRI Reporting Station
Overcast Overcast  
Wind Chill: 37°   Ceiling: 5000
Heat Index: 40°   Visibility: 10mi
Dew Point: 33°   Wind: 5mph
Humidity: 77%   Direction: 310°NW
Pressure: 29.88"   Gusts: NA
Location:  36.1774°N, 82.8035°W
Report Text: KTRI 010253Z 31004KT 10SM OVC050 04/01 A2988 RMK AO2 RAE12 SLP110 P0000 60012 T00440006 53007
Loading
Personal Weather Stations






























Interactive Weather Map
Tropical Storm Tracking
New forecast layout! Learn more

10-Day Weather Forecast

Advertisements
Track Severe Weather on mobile